Kansas City, Missouri
Traffic Map
Current Weather Conditions
Kansas City, Missouri
Clear Haze
Clear
64°
Feels Like: 64°
Wind Chill: 64° Ceiling: Unl
Heat Index: 64° Visibility: 6mi
Dew Point: 61° Wind: 5mph
Humidity: 90% Direction: 90° (E)
Pressure: 30.01in Gusts: 0mph
Raw Report DataKMKC 190354Z 09004KT 6SM BR CLR 18/16 A3001 RMK AO2 SLP159 T01780161
Traffic Incident Summary
Active as of:
Severity:
Category:
InformationThere was an issue retrieving the traffic information for this location. Please try a different location or try again shortly.
Advertisements
Track Severe Weather on mobile